sensor_id;sensor_type;location;lat;lon;timestamp;pressure;altitude;pressure_sealevel;temperature;humidity
53522;BME280;39398;48.382;9.802;2024-03-29T00:03:42;92374.91;;;5.46;63.18
53522;BME280;39398;48.382;9.802;2024-03-29T00:08:43;92370.81;;;5.64;64.31
53522;BME280;39398;48.382;9.802;2024-03-29T00:13:43;92364.19;;;5.49;62.40
53522;BME280;39398;48.382;9.802;2024-03-29T00:18:44;92365.81;;;5.37;62.96
53522;BME280;39398;48.382;9.802;2024-03-29T00:23:45;92344.22;;;5.38;63.99
53522;BME280;39398;48.382;9.802;2024-03-29T00:28:46;92329.75;;;5.37;63.77
53522;BME280;39398;48.382;9.802;2024-03-29T00:33:46;92270.06;;;5.15;64.26
53522;BME280;39398;48.382;9.802;2024-03-29T00:38:47;92298.41;;;5.09;64.08
53522;BME280;39398;48.382;9.802;2024-03-29T00:43:48;92272.72;;;5.02;64.77
53522;BME280;39398;48.382;9.802;2024-03-29T00:48:48;92253.63;;;4.85;64.90
53522;BME280;39398;48.382;9.802;2024-03-29T00:53:49;92239.59;;;5.06;64.28
53522;BME280;39398;48.382;9.802;2024-03-29T00:58:50;92228.50;;;5.05;62.92
53522;BME280;39398;48.382;9.802;2024-03-29T01:03:50;92230.16;;;5.00;63.23
53522;BME280;39398;48.382;9.802;2024-03-29T01:08:51;92228.88;;;5.09;64.07
53522;BME280;39398;48.382;9.802;2024-03-29T01:13:55;92260.19;;;5.06;63.80
53522;BME280;39398;48.382;9.802;2024-03-29T01:18:57;92246.78;;;4.97;63.48
53522;BME280;39398;48.382;9.802;2024-03-29T01:23:58;92244.34;;;5.09;62.96
53522;BME280;39398;48.382;9.802;2024-03-29T01:28:59;92231.75;;;4.94;62.79
53522;BME280;39398;48.382;9.802;2024-03-29T01:33:59;92239.97;;;4.40;64.01
53522;BME280;39398;48.382;9.802;2024-03-29T01:39:00;92240.44;;;4.68;64.43
53522;BME280;39398;48.382;9.802;2024-03-29T01:44:01;92220.88;;;4.54;64.08
53522;BME280;39398;48.382;9.802;2024-03-29T01:49:04;92221.97;;;4.71;62.23
53522;BME280;39398;48.382;9.802;2024-03-29T01:54:08;92230.75;;;4.19;65.28
53522;BME280;39398;48.382;9.802;2024-03-29T01:59:14;92231.47;;;3.75;67.24
53522;BME280;39398;48.382;9.802;2024-03-29T02:04:17;92230.13;;;3.66;68.42
53522;BME280;39398;48.382;9.802;2024-03-29T02:09:19;92212.78;;;4.06;66.73
53522;BME280;39398;48.382;9.802;2024-03-29T02:14:21;92215.81;;;3.96;67.50
53522;BME280;39398;48.382;9.802;2024-03-29T02:19:24;92243.19;;;4.29;65.93
53522;BME280;39398;48.382;9.802;2024-03-29T02:24:25;92205.13;;;4.44;65.41
53522;BME280;39398;48.382;9.802;2024-03-29T02:29:29;92270.69;;;4.28;65.98
53522;BME280;39398;48.382;9.802;2024-03-29T02:34:31;92240.81;;;4.27;65.93
53522;BME280;39398;48.382;9.802;2024-03-29T02:39:32;92213.50;;;4.33;65.76
53522;BME280;39398;48.382;9.802;2024-03-29T02:44:34;92202.22;;;4.34;65.17
53522;BME280;39398;48.382;9.802;2024-03-29T02:49:36;92223.66;;;4.14;66.28
53522;BME280;39398;48.382;9.802;2024-03-29T02:54:37;92215.81;;;3.96;67.14
53522;BME280;39398;48.382;9.802;2024-03-29T02:59:42;92191.81;;;4.15;65.21
53522;BME280;39398;48.382;9.802;2024-03-29T03:04:43;92180.94;;;4.13;65.48
53522;BME280;39398;48.382;9.802;2024-03-29T03:09:45;92192.22;;;4.12;65.11
53522;BME280;39398;48.382;9.802;2024-03-29T03:15:04;92192.22;;;4.06;66.42
53522;BME280;39398;48.382;9.802;2024-03-29T03:20:06;92214.94;;;4.15;63.90
53522;BME280;39398;48.382;9.802;2024-03-29T03:25:09;92185.72;;;4.41;62.42
53522;BME280;39398;48.382;9.802;2024-03-29T03:30:11;92183.28;;;4.53;62.84
53522;BME280;39398;48.382;9.802;2024-03-29T03:35:14;92199.41;;;4.73;58.90
53522;BME280;39398;48.382;9.802;2024-03-29T03:40:15;92199.38;;;4.80;57.33
53522;BME280;39398;48.382;9.802;2024-03-29T03:45:17;92199.09;;;4.88;57.97
53522;BME280;39398;48.382;9.802;2024-03-29T03:50:19;92209.00;;;4.91;58.55
53522;BME280;39398;48.382;9.802;2024-03-29T03:55:20;92206.75;;;5.01;57.45
53522;BME280;39398;48.382;9.802;2024-03-29T04:00:22;92205.97;;;5.01;57.25
53522;BME280;39398;48.382;9.802;2024-03-29T04:05:24;92212.25;;;4.42;61.41
53522;BME280;39398;48.382;9.802;2024-03-29T04:10:26;92213.84;;;4.43;59.43
53522;BME280;39398;48.382;9.802;2024-03-29T04:15:28;92217.88;;;4.64;59.23
53522;BME280;39398;48.382;9.802;2024-03-29T04:20:29;92186.28;;;4.50;60.88
53522;BME280;39398;48.382;9.802;2024-03-29T04:25:31;92186.66;;;4.15;62.21
53522;BME280;39398;48.382;9.802;2024-03-29T04:30:33;92169.44;;;4.16;64.38
53522;BME280;39398;48.382;9.802;2024-03-29T04:35:34;92184.75;;;3.91;64.18
53522;BME280;39398;48.382;9.802;2024-03-29T04:40:36;92174.53;;;3.71;66.86
53522;BME280;39398;48.382;9.802;2024-03-29T04:45:37;92162.78;;;4.02;64.67
53522;BME280;39398;48.382;9.802;2024-03-29T04:50:39;92186.44;;;3.66;66.09
53522;BME280;39398;48.382;9.802;2024-03-29T04:55:41;92219.81;;;3.79;67.11
53522;BME280;39398;48.382;9.802;2024-03-29T05:00:44;92242.16;;;3.85;65.58
53522;BME280;39398;48.382;9.802;2024-03-29T05:05:46;92188.25;;;4.16;63.78
53522;BME280;39398;48.382;9.802;2024-03-29T05:10:48;92202.16;;;3.89;65.54
53522;BME280;39398;48.382;9.802;2024-03-29T05:15:51;92207.34;;;3.76;66.14
53522;BME280;39398;48.382;9.802;2024-03-29T05:20:52;92190.16;;;3.83;68.24
53522;BME280;39398;48.382;9.802;2024-03-29T05:25:54;92180.88;;;3.69;68.05
53522;BME280;39398;48.382;9.802;2024-03-29T05:30:57;92176.47;;;3.89;66.11
53522;BME280;39398;48.382;9.802;2024-03-29T05:36:12;92166.81;;;3.78;68.74
53522;BME280;39398;48.382;9.802;2024-03-29T05:41:13;92151.84;;;4.13;64.58
53522;BME280;39398;48.382;9.802;2024-03-29T05:46:16;92176.69;;;3.81;68.54
53522;BME280;39398;48.382;9.802;2024-03-29T05:51:18;92196.22;;;4.02;67.06
53522;BME280;39398;48.382;9.802;2024-03-29T05:56:20;92219.69;;;4.12;67.14
53522;BME280;39398;48.382;9.802;2024-03-29T06:01:22;92225.41;;;4.20;64.73
53522;BME280;39398;48.382;9.802;2024-03-29T06:06:24;92240.47;;;4.10;68.76
53522;BME280;39398;48.382;9.802;2024-03-29T06:11:25;92231.97;;;4.10;68.14
53522;BME280;39398;48.382;9.802;2024-03-29T06:16:28;92254.50;;;4.14;69.86
53522;BME280;39398;48.382;9.802;2024-03-29T06:21:47;92249.50;;;4.33;69.43
53522;BME280;39398;48.382;9.802;2024-03-29T06:26:48;92274.03;;;4.73;66.29
53522;BME280;39398;48.382;9.802;2024-03-29T06:31:50;92258.69;;;4.98;65.24
53522;BME280;39398;48.382;9.802;2024-03-29T06:36:51;92257.50;;;5.25;64.60
53522;BME280;39398;48.382;9.802;2024-03-29T06:41:53;92260.84;;;5.26;65.58
53522;BME280;39398;48.382;9.802;2024-03-29T06:46:55;92251.13;;;5.28;69.06
53522;BME280;39398;48.382;9.802;2024-03-29T06:51:56;92235.41;;;5.11;68.12
53522;BME280;39398;48.382;9.802;2024-03-29T06:57:00;92232.22;;;5.16;66.48
53522;BME280;39398;48.382;9.802;2024-03-29T07:02:03;92234.78;;;5.16;64.54
53522;BME280;39398;48.382;9.802;2024-03-29T07:07:04;92218.88;;;5.69;65.00
53522;BME280;39398;48.382;9.802;2024-03-29T07:12:06;92205.22;;;5.43;66.04
53522;BME280;39398;48.382;9.802;2024-03-29T07:17:08;92222.16;;;5.57;64.67
53522;BME280;39398;48.382;9.802;2024-03-29T07:22:09;92215.16;;;5.40;67.21
53522;BME280;39398;48.382;9.802;2024-03-29T07:27:11;92221.97;;;5.77;66.97
53522;BME280;39398;48.382;9.802;2024-03-29T07:32:13;92234.66;;;5.79;67.76
53522;BME280;39398;48.382;9.802;2024-03-29T07:37:16;92242.44;;;5.97;67.53
53522;BME280;39398;48.382;9.802;2024-03-29T07:42:19;92229.53;;;5.97;67.60
53522;BME280;39398;48.382;9.802;2024-03-29T07:47:20;92233.28;;;6.19;66.60
53522;BME280;39398;48.382;9.802;2024-03-29T07:52:25;92246.16;;;6.01;66.72
53522;BME280;39398;48.382;9.802;2024-03-29T07:57:27;92238.38;;;6.56;64.41
53522;BME280;39398;48.382;9.802;2024-03-29T08:02:29;92252.13;;;6.86;66.20
53522;BME280;39398;48.382;9.802;2024-03-29T08:07:32;92252.25;;;7.33;64.02
53522;BME280;39398;48.382;9.802;2024-03-29T08:12:33;92233.16;;;7.57;64.24
53522;BME280;39398;48.382;9.802;2024-03-29T08:17:37;92226.28;;;8.10;63.36
53522;BME280;39398;48.382;9.802;2024-03-29T08:22:39;92224.59;;;8.15;60.50
53522;BME280;39398;48.382;9.802;2024-03-29T08:27:40;92216.59;;;8.28;61.65
53522;BME280;39398;48.382;9.802;2024-03-29T08:32:42;92212.97;;;8.81;60.16
53522;BME280;39398;48.382;9.802;2024-03-29T08:37:44;92209.88;;;9.13;60.25
53522;BME280;39398;48.382;9.802;2024-03-29T08:42:45;92220.75;;;9.43;57.23
53522;BME280;39398;48.382;9.802;2024-03-29T08:47:47;92235.38;;;9.83;53.79
53522;BME280;39398;48.382;9.802;2024-03-29T08:52:48;92236.16;;;10.00;53.32
53522;BME280;39398;48.382;9.802;2024-03-29T08:57:50;92230.81;;;10.67;53.05
53522;BME280;39398;48.382;9.802;2024-03-29T09:02:51;92233.19;;;10.95;54.54
53522;BME280;39398;48.382;9.802;2024-03-29T09:07:53;92233.31;;;11.05;51.79
53522;BME280;39398;48.382;9.802;2024-03-29T09:12:55;92240.38;;;11.10;54.53
53522;BME280;39398;48.382;9.802;2024-03-29T09:17:56;92252.81;;;11.30;52.03
53522;BME280;39398;48.382;9.802;2024-03-29T09:23:01;92240.16;;;11.70;52.17
53522;BME280;39398;48.382;9.802;2024-03-29T09:28:03;92252.88;;;12.36;49.79
53522;BME280;39398;48.382;9.802;2024-03-29T09:33:05;92252.78;;;12.26;51.01
53522;BME280;39398;48.382;9.802;2024-03-29T09:38:09;92233.84;;;12.40;48.30
53522;BME280;39398;48.382;9.802;2024-03-29T09:43:14;92239.81;;;12.31;50.46
53522;BME280;39398;48.382;9.802;2024-03-29T09:48:16;92254.31;;;12.16;51.23
53522;BME280;39398;48.382;9.802;2024-03-29T09:53:19;92256.72;;;12.28;52.57
53522;BME280;39398;48.382;9.802;2024-03-29T09:58:21;92273.63;;;12.26;51.68
53522;BME280;39398;48.382;9.802;2024-03-29T10:03:24;92240.41;;;12.01;51.64
53522;BME280;39398;48.382;9.802;2024-03-29T10:08:30;92226.25;;;11.92;52.43
53522;BME280;39398;48.382;9.802;2024-03-29T10:13:32;92220.91;;;11.71;55.16
53522;BME280;39398;48.382;9.802;2024-03-29T10:18:35;92243.91;;;11.52;56.32
53522;BME280;39398;48.382;9.802;2024-03-29T10:23:36;92245.19;;;10.96;57.96
53522;BME280;39398;48.382;9.802;2024-03-29T10:28:39;92250.13;;;11.19;57.52
53522;BME280;39398;48.382;9.802;2024-03-29T10:33:43;92256.28;;;11.13;56.81
53522;BME280;39398;48.382;9.802;2024-03-29T10:38:45;92271.56;;;10.83;55.89
53522;BME280;39398;48.382;9.802;2024-03-29T10:43:48;92241.38;;;11.04;56.88
53522;BME280;39398;48.382;9.802;2024-03-29T10:48:51;92246.25;;;11.00;54.15
53522;BME280;39398;48.382;9.802;2024-03-29T10:53:55;92248.63;;;11.29;51.42
53522;BME280;39398;48.382;9.802;2024-03-29T10:59:03;92233.81;;;11.56;51.13
53522;BME280;39398;48.382;9.802;2024-03-29T11:04:13;92220.03;;;11.93;56.12
53522;BME280;39398;48.382;9.802;2024-03-29T11:09:19;92205.69;;;12.32;57.22
53522;BME280;39398;48.382;9.802;2024-03-29T11:14:37;92204.34;;;11.82;56.07
53522;BME280;39398;48.382;9.802;2024-03-29T11:19:41;92190.69;;;12.59;53.77
53522;BME280;39398;48.382;9.802;2024-03-29T11:24:43;92200.09;;;12.66;50.22
53522;BME280;39398;48.382;9.802;2024-03-29T11:29:45;92207.78;;;13.08;51.81
53522;BME280;39398;48.382;9.802;2024-03-29T11:34:50;92184.09;;;13.24;52.78
53522;BME280;39398;48.382;9.802;2024-03-29T11:39:54;92201.31;;;13.20;58.02
53522;BME280;39398;48.382;9.802;2024-03-29T11:44:55;92196.09;;;13.91;55.75
53522;BME280;39398;48.382;9.802;2024-03-29T11:49:58;92200.03;;;14.04;47.51
53522;BME280;39398;48.382;9.802;2024-03-29T11:55:01;92189.75;;;14.53;47.33
53522;BME280;39398;48.382;9.802;2024-03-29T12:00:03;92180.81;;;14.59;47.07
53522;BME280;39398;48.382;9.802;2024-03-29T12:05:08;92167.13;;;14.88;46.55
53522;BME280;39398;48.382;9.802;2024-03-29T12:10:10;92168.78;;;14.58;46.42
53522;BME280;39398;48.382;9.802;2024-03-29T12:15:12;92179.81;;;14.50;45.25
53522;BME280;39398;48.382;9.802;2024-03-29T12:20:13;92169.56;;;14.59;45.29
53522;BME280;39398;48.382;9.802;2024-03-29T12:25:19;92129.81;;;14.62;45.40
53522;BME280;39398;48.382;9.802;2024-03-29T12:30:22;92133.59;;;14.41;52.32
53522;BME280;39398;48.382;9.802;2024-03-29T12:35:23;92124.38;;;14.53;45.94
53522;BME280;39398;48.382;9.802;2024-03-29T12:40:27;92129.06;;;14.56;46.59
53522;BME280;39398;48.382;9.802;2024-03-29T12:45:30;92130.09;;;14.60;44.49
53522;BME280;39398;48.382;9.802;2024-03-29T12:50:32;92124.81;;;14.71;44.57
53522;BME280;39398;48.382;9.802;2024-03-29T12:55:34;92143.69;;;14.62;53.92
53522;BME280;39398;48.382;9.802;2024-03-29T13:00:37;92140.72;;;15.23;48.55
53522;BME280;39398;48.382;9.802;2024-03-29T13:05:40;92150.28;;;15.04;44.62
53522;BME280;39398;48.382;9.802;2024-03-29T13:10:42;92152.31;;;15.12;44.98
53522;BME280;39398;48.382;9.802;2024-03-29T13:15:44;92154.53;;;14.90;47.40
53522;BME280;39398;48.382;9.802;2024-03-29T13:20:47;92164.28;;;15.23;47.85
53522;BME280;39398;48.382;9.802;2024-03-29T13:25:49;92153.75;;;15.33;48.81
53522;BME280;39398;48.382;9.802;2024-03-29T13:30:51;92160.72;;;15.82;47.95
53522;BME280;39398;48.382;9.802;2024-03-29T13:35:53;92162.91;;;15.36;43.53
53522;BME280;39398;48.382;9.802;2024-03-29T13:40:55;92161.16;;;15.60;47.73
53522;BME280;39398;48.382;9.802;2024-03-29T13:45:57;92156.25;;;15.49;47.37
53522;BME280;39398;48.382;9.802;2024-03-29T13:51:00;92154.91;;;15.17;46.95
53522;BME280;39398;48.382;9.802;2024-03-29T13:56:02;92154.69;;;15.09;49.63
53522;BME280;39398;48.382;9.802;2024-03-29T14:01:04;92165.19;;;15.82;48.13
53522;BME280;39398;48.382;9.802;2024-03-29T14:06:06;92155.72;;;15.52;50.50
53522;BME280;39398;48.382;9.802;2024-03-29T14:11:07;92152.72;;;15.68;51.12
53522;BME280;39398;48.382;9.802;2024-03-29T14:16:11;92153.28;;;15.94;50.60
53522;BME280;39398;48.382;9.802;2024-03-29T14:21:13;92166.47;;;15.55;50.14
53522;BME280;39398;48.382;9.802;2024-03-29T14:26:14;92148.69;;;15.81;50.72
53522;BME280;39398;48.382;9.802;2024-03-29T14:31:16;92154.09;;;15.61;53.55
53522;BME280;39398;48.382;9.802;2024-03-29T14:36:18;92170.69;;;15.80;49.54
53522;BME280;39398;48.382;9.802;2024-03-29T14:41:19;92156.22;;;16.17;50.66
53522;BME280;39398;48.382;9.802;2024-03-29T14:46:22;92155.56;;;16.01;50.24
53522;BME280;39398;48.382;9.802;2024-03-29T14:51:25;92155.81;;;16.04;50.34
53522;BME280;39398;48.382;9.802;2024-03-29T14:56:28;92153.78;;;15.96;51.65
53522;BME280;39398;48.382;9.802;2024-03-29T15:01:31;92130.66;;;16.27;50.76
53522;BME280;39398;48.382;9.802;2024-03-29T15:06:33;92129.00;;;16.36;50.10
53522;BME280;39398;48.382;9.802;2024-03-29T15:11:35;92135.34;;;16.07;48.06
53522;BME280;39398;48.382;9.802;2024-03-29T15:16:37;92141.38;;;16.31;50.46
53522;BME280;39398;48.382;9.802;2024-03-29T15:21:38;92146.56;;;15.83;52.44
53522;BME280;39398;48.382;9.802;2024-03-29T15:26:41;92138.41;;;15.90;52.36
53522;BME280;39398;48.382;9.802;2024-03-29T15:31:43;92143.22;;;16.07;50.73
53522;BME280;39398;48.382;9.802;2024-03-29T15:36:45;92139.31;;;16.04;52.40
53522;BME280;39398;48.382;9.802;2024-03-29T15:41:47;92134.06;;;15.75;50.76
53522;BME280;39398;48.382;9.802;2024-03-29T15:46:49;92135.13;;;15.74;52.34
53522;BME280;39398;48.382;9.802;2024-03-29T15:51:50;92141.31;;;15.83;53.10
53522;BME280;39398;48.382;9.802;2024-03-29T15:56:52;92140.94;;;15.66;52.60
53522;BME280;39398;48.382;9.802;2024-03-29T16:01:54;92138.44;;;15.51;51.83
53522;BME280;39398;48.382;9.802;2024-03-29T16:06:56;92135.44;;;15.28;55.63
53522;BME280;39398;48.382;9.802;2024-03-29T16:11:58;92129.09;;;15.00;55.37
53522;BME280;39398;48.382;9.802;2024-03-29T16:17:00;92132.56;;;14.91;56.18
53522;BME280;39398;48.382;9.802;2024-03-29T16:22:01;92124.31;;;14.63;57.72
53522;BME280;39398;48.382;9.802;2024-03-29T16:27:04;92124.97;;;14.25;58.03
53522;BME280;39398;48.382;9.802;2024-03-29T16:32:06;92127.56;;;14.35;57.79
53522;BME280;39398;48.382;9.802;2024-03-29T16:37:09;92127.34;;;14.21;58.15
53522;BME280;39398;48.382;9.802;2024-03-29T16:42:11;92117.72;;;14.02;57.60
53522;BME280;39398;48.382;9.802;2024-03-29T16:47:12;92132.91;;;13.94;59.29
53522;BME280;39398;48.382;9.802;2024-03-29T16:52:14;92135.53;;;13.79;60.69
53522;BME280;39398;48.382;9.802;2024-03-29T16:57:15;92142.03;;;14.07;59.20
53522;BME280;39398;48.382;9.802;2024-03-29T17:02:17;92137.56;;;14.08;59.42
53522;BME280;39398;48.382;9.802;2024-03-29T17:07:19;92134.50;;;13.75;60.96
53522;BME280;39398;48.382;9.802;2024-03-29T17:12:21;92135.03;;;13.62;62.37
53522;BME280;39398;48.382;9.802;2024-03-29T17:17:25;92122.75;;;13.68;62.52
53522;BME280;39398;48.382;9.802;2024-03-29T17:22:27;92127.72;;;13.64;62.40
53522;BME280;39398;48.382;9.802;2024-03-29T17:27:35;92131.41;;;13.38;63.27
53522;BME280;39398;48.382;9.802;2024-03-29T17:32:37;92120.88;;;12.82;65.90
53522;BME280;39398;48.382;9.802;2024-03-29T17:37:39;92131.75;;;12.53;67.64
53522;BME280;39398;48.382;9.802;2024-03-29T17:42:40;92137.38;;;12.25;68.79
53522;BME280;39398;48.382;9.802;2024-03-29T17:47:42;92137.22;;;11.95;70.12
53522;BME280;39398;48.382;9.802;2024-03-29T17:52:44;92135.16;;;11.97;71.14
53522;BME280;39398;48.382;9.802;2024-03-29T17:57:45;92140.94;;;12.04;71.26
53522;BME280;39398;48.382;9.802;2024-03-29T18:02:47;92143.34;;;12.15;70.16
53522;BME280;39398;48.382;9.802;2024-03-29T18:07:49;92136.59;;;11.77;72.58
53522;BME280;39398;48.382;9.802;2024-03-29T18:12:50;92148.09;;;11.81;72.22
53522;BME280;39398;48.382;9.802;2024-03-29T18:17:52;92151.78;;;11.85;71.72
53522;BME280;39398;48.382;9.802;2024-03-29T18:22:53;92151.91;;;12.11;70.13
53522;BME280;39398;48.382;9.802;2024-03-29T18:27:55;92154.38;;;11.85;71.94
53522;BME280;39398;48.382;9.802;2024-03-29T18:32:57;92175.63;;;11.72;72.48
53522;BME280;39398;48.382;9.802;2024-03-29T18:37:59;92161.19;;;11.97;71.48
53522;BME280;39398;48.382;9.802;2024-03-29T18:43:00;92166.38;;;11.92;71.48
53522;BME280;39398;48.382;9.802;2024-03-29T18:48:02;92172.25;;;12.14;70.18
53522;BME280;39398;48.382;9.802;2024-03-29T18:53:04;92162.63;;;12.19;69.75
53522;BME280;39398;48.382;9.802;2024-03-29T18:58:06;92172.63;;;12.38;68.47
53522;BME280;39398;48.382;9.802;2024-03-29T19:03:07;92171.31;;;12.40;67.66
53522;BME280;39398;48.382;9.802;2024-03-29T19:08:09;92177.66;;;12.54;66.28
53522;BME280;39398;48.382;9.802;2024-03-29T19:13:10;92182.84;;;12.54;66.91
53522;BME280;39398;48.382;9.802;2024-03-29T19:18:12;92184.44;;;12.55;67.59
53522;BME280;39398;48.382;9.802;2024-03-29T19:23:14;92187.78;;;12.51;68.01
53522;BME280;39398;48.382;9.802;2024-03-29T19:28:16;92181.78;;;12.50;68.07
53522;BME280;39398;48.382;9.802;2024-03-29T19:33:17;92182.59;;;12.61;66.68
53522;BME280;39398;48.382;9.802;2024-03-29T19:38:19;92184.16;;;12.52;68.02
53522;BME280;39398;48.382;9.802;2024-03-29T19:43:21;92183.44;;;12.72;61.67
53522;BME280;39398;48.382;9.802;2024-03-29T19:48:24;92174.03;;;12.76;61.13
53522;BME280;39398;48.382;9.802;2024-03-29T19:53:25;92178.53;;;12.85;60.76
53522;BME280;39398;48.382;9.802;2024-03-29T19:58:28;92180.59;;;12.83;60.42
53522;BME280;39398;48.382;9.802;2024-03-29T20:03:29;92172.53;;;12.85;58.34
53522;BME280;39398;48.382;9.802;2024-03-29T20:08:31;92172.56;;;13.00;55.35
53522;BME280;39398;48.382;9.802;2024-03-29T20:13:33;92171.00;;;13.14;54.19
53522;BME280;39398;48.382;9.802;2024-03-29T20:18:35;92171.59;;;13.21;53.44
53522;BME280;39398;48.382;9.802;2024-03-29T20:23:37;92179.41;;;13.21;53.34
53522;BME280;39398;48.382;9.802;2024-03-29T20:28:38;92176.53;;;13.18;52.92
53522;BME280;39398;48.382;9.802;2024-03-29T20:33:40;92171.81;;;13.15;52.66
53522;BME280;39398;48.382;9.802;2024-03-29T20:38:43;92177.34;;;13.23;51.62
53522;BME280;39398;48.382;9.802;2024-03-29T20:43:44;92182.50;;;13.13;52.14
53522;BME280;39398;48.382;9.802;2024-03-29T20:48:47;92176.00;;;13.16;51.44
53522;BME280;39398;48.382;9.802;2024-03-29T20:53:48;92177.81;;;13.15;51.28
53522;BME280;39398;48.382;9.802;2024-03-29T20:58:51;92181.50;;;13.19;49.73
53522;BME280;39398;48.382;9.802;2024-03-29T21:03:53;92182.03;;;13.21;49.34
53522;BME280;39398;48.382;9.802;2024-03-29T21:09:12;92190.38;;;13.18;49.18
53522;BME280;39398;48.382;9.802;2024-03-29T21:14:13;92199.72;;;13.14;48.98
53522;BME280;39398;48.382;9.802;2024-03-29T21:19:15;92205.94;;;13.08;49.80
53522;BME280;39398;48.382;9.802;2024-03-29T21:24:16;92201.25;;;13.10;48.56
53522;BME280;39398;48.382;9.802;2024-03-29T21:29:18;92199.69;;;13.04;48.49
53522;BME280;39398;48.382;9.802;2024-03-29T21:34:20;92196.03;;;13.10;47.77
53522;BME280;39398;48.382;9.802;2024-03-29T21:39:23;92201.84;;;13.22;46.21
53522;BME280;39398;48.382;9.802;2024-03-29T21:44:25;92211.81;;;13.51;43.08
53522;BME280;39398;48.382;9.802;2024-03-29T21:49:27;92203.19;;;13.66;41.37
53522;BME280;39398;48.382;9.802;2024-03-29T21:54:28;92212.06;;;13.85;41.39
53522;BME280;39398;48.382;9.802;2024-03-29T21:59:30;92214.63;;;14.10;39.26
53522;BME280;39398;48.382;9.802;2024-03-29T22:04:32;92217.78;;;14.22;37.89
53522;BME280;39398;48.382;9.802;2024-03-29T22:09:34;92203.91;;;14.27;37.94
53522;BME280;39398;48.382;9.802;2024-03-29T22:14:36;92216.69;;;14.28;37.58
53522;BME280;39398;48.382;9.802;2024-03-29T22:19:37;92212.78;;;14.46;36.75
53522;BME280;39398;48.382;9.802;2024-03-29T22:24:39;92213.03;;;14.45;37.38
53522;BME280;39398;48.382;9.802;2024-03-29T22:29:41;92209.09;;;14.52;36.05
53522;BME280;39398;48.382;9.802;2024-03-29T22:34:42;92224.78;;;14.57;36.17
53522;BME280;39398;48.382;9.802;2024-03-29T22:39:44;92231.34;;;14.45;36.94
53522;BME280;39398;48.382;9.802;2024-03-29T22:44:45;92230.25;;;14.61;35.88
53522;BME280;39398;48.382;9.802;2024-03-29T22:49:47;92242.31;;;14.57;35.95
53522;BME280;39398;48.382;9.802;2024-03-29T22:54:49;92238.91;;;14.56;35.61
53522;BME280;39398;48.382;9.802;2024-03-29T22:59:50;92241.00;;;14.54;35.64
53522;BME280;39398;48.382;9.802;2024-03-29T23:04:52;92249.38;;;14.56;35.16
53522;BME280;39398;48.382;9.802;2024-03-29T23:09:53;92240.50;;;14.47;35.88
53522;BME280;39398;48.382;9.802;2024-03-29T23:14:56;92238.91;;;14.56;34.93
53522;BME280;39398;48.382;9.802;2024-03-29T23:19:58;92258.78;;;14.52;35.25
53522;BME280;39398;48.382;9.802;2024-03-29T23:24:59;92245.94;;;14.61;35.31
53522;BME280;39398;48.382;9.802;2024-03-29T23:30:02;92258.75;;;14.68;34.14
53522;BME280;39398;48.382;9.802;2024-03-29T23:35:05;92263.97;;;14.68;34.67
53522;BME280;39398;48.382;9.802;2024-03-29T23:40:07;92268.44;;;14.62;34.79
53522;BME280;39398;48.382;9.802;2024-03-29T23:45:08;92271.84;;;14.57;34.43
53522;BME280;39398;48.382;9.802;2024-03-29T23:50:10;92261.94;;;14.54;34.98
53522;BME280;39398;48.382;9.802;2024-03-29T23:55:12;92276.31;;;14.57;34.22
